Alva, Florida
Current Conditions -  °F | °C
As of 4:53 PM on Tuesday 21 Oct 2014 (Local Time) from KRSW Reporting Station
Clear Clear  
Wind Chill: 79°   Ceiling: Unl
Heat Index: 81°   Visibility: 10mi
Dew Point: 68°   Wind: 7mph
Humidity: 69%   Direction: 220°SW
Pressure: 29.9"   Gusts: NA
Location:  26.72°N, 81.61°W
Report Text: KRSW 212053Z 22006KT 10SM CLR 26/20 A2990 RMK AO2 SLP122 T02610200 56014
Loading
Personal Weather Stations






























Interactive Weather Map
Tropical Storm Tracking
New forecast layout! Learn more

10-Day Weather Forecast

Advertisements
Track Severe Weather on mobile